D/T METAR WX W/DIR W/SPE G/SPE TEMP DEWP
6/06/20 11:50 EGDR 061050Z AUTO 31021KT 9999 // BKN028/// BKN035/// 13/06 Q1006 NW (310°) 24.2mph 13°C 6°C
6/06/20 10:50 EGDR 060950Z AUTO 30026KT 9999 // BKN029/// SCT039/// 11/04 Q1006 WNW (300°) 29.9mph 11°C 4°C
6/06/20 09:50 EGDR 060850Z AUTO 30023KT 9999 // FEW032/// BKN041/// 11/04 Q1006 WNW (300°) 26.5mph 11°C 4°C
6/06/20 08:50 EGDR 060750Z AUTO 30021KT 9999 // FEW031/// 11/04 Q1006 WNW (300°) 24.2mph 11°C 4°C
6/06/20 07:50 EGDR 060650Z AUTO 30019KT 9999 // FEW032/// 10/04 Q1006 WNW (300°) 21.9mph 10°C 4°C
6/06/20 06:50 EGDR 060550Z AUTO 30017KT 9999 // FEW050/// 09/04 Q1006 WNW (300°) 19.6mph 9°C 4°C
6/06/20 05:50 EGDR 060450Z AUTO 30012KT 9999 // FEW050/// 08/04 Q1006 WNW (300°) 13.8mph 8°C 4°C
6/06/20 04:50 EGDR 060350Z AUTO 31016KT 9999 // FEW026/// SCT034/// 09/06 Q1005 NW (310°) 18.4mph 9°C 6°C
6/06/20 03:50 EGDR 060250Z AUTO 33010KT 9999 // FEW034/// 09/05 Q1006 NNW (330°) 11.5mph 9°C 5°C
6/06/20 02:50 EGDR 060150Z AUTO 33013KT 9999 // FEW050/// 10/04 Q1005 NNW (330°) 15.0mph 10°C 4°C
6/06/20 01:50 EGDR 060050Z AUTO 32010KT 9999 // FEW025/// 10/06 Q1005 NW (320°) 11.5mph 10°C 6°C
6/06/20 00:50 EGDR 052350Z AUTO 31006KT 9999 // NCD 09/06 Q1005 NW (310°) 6.9mph 9°C 6°C
5/06/20 23:50 EGDR 052250Z AUTO 33015KT 9999 // FEW050/// 10/06 Q1004 NNW (330°) 17.3mph 10°C 6°C
5/06/20 22:50 EGDR 052150Z AUTO 32008KT 9999 // FEW070/// 11/08 Q1004 NW (320°) 9.2mph 11°C 8°C
5/06/20 21:50 EGDR 052050Z AUTO 29004KT 9999 // BKN050/// 10/08 Q1003 WNW (290°) 4.6mph 10°C 8°C
5/06/20 20:50 EGDR 051950Z AUTO 29015KT 9999 // FEW017/// SCT050/// 13/09 Q1003 WNW (290°) 17.3mph 13°C 9°C
5/06/20 19:50 EGDR 051850Z AUTO 29018KT 9999 // SCT018/// SCT034/// 14/10 Q1003 WNW (290°) 20.7mph 14°C 10°C
5/06/20 18:50 EGDR 051750Z AUTO 29014KT 9999 // FEW020/// SCT031/// BKN047/// 14/09 Q1003 WNW (290°) 16.1mph 14°C 9°C
5/06/20 17:50 EGDR 051650Z AUTO 30014KT 9999 // SCT021/// SCT039/// 14/09 Q1003 WNW (300°) 16.1mph 14°C 9°C
5/06/20 16:50 EGDR 051550Z AUTO 31015KT 9999 // SCT039/// 14/09 Q1003 NW (310°) 17.3mph 14°C 9°C
5/06/20 15:50 EGDR 051450Z AUTO 30016KT 9999 // FEW023/// BKN042/// 15/09 Q1003 WNW (300°) 18.4mph 15°C 9°C
5/06/20 14:50 EGDR 051350Z AUTO 31015KT 9999 // FEW021/// BKN027/// 14/08 Q1003 NW (310°) 17.3mph 14°C 8°C
5/06/20 13:50 EGDR 051250Z AUTO 32016KT 9999 // SCT021/// BKN027/// 13/09 Q1003 NW (320°) 18.4mph 13°C 9°C
5/06/20 13:23 EGDR 051223Z 31014G24KT 9999 FEW012 BKN020 BKN090 14/08 Q1003 TEMPO 8000 -SHRA SCT010 BKN018 RMK WHT TEMPO GRN NW (310°) 16.1mph 27.6mph 14°C 8°C
5/06/20 12:50 EGDR 051150Z 31016G26KT 9999 FEW012 BKN020 BKN090 14/08 Q1003 TEMPO 8000 -SHRA SCT010 BKN018 RMK WHT TEMPO GRN NW (310°) 18.4mph 29.9mph 14°C 8°C
5/06/20 12:23 EGDR 051123Z 32014G24KT 9999 FEW012 SCT020 BKN090 14/08 Q1003 TEMPO 8000 -SHRA SCT010 BKN018 RMK WHT TEMPO GRN NW (320°) 16.1mph 27.6mph 14°C 8°C
5/06/20 11:50 EGDR 051050Z 31016G29KT 9999 FEW012 SCT020 BKN100 13/09 Q1003 TEMPO 8000 -SHRA SCT010 BKN018 RMK WHT TEMPO GRN NW (310°) 18.4mph 33.4mph 13°C 9°C
5/06/20 11:25 EGDR 051025Z 31015G26KT 9999 FEW012 BKN020 BKN100 14/09 Q1003 TEMPO 8000 -SHRA SCT010 BKN018 RMK WHT TEMPO GRN NW (310°) 17.3mph 29.9mph 14°C 9°C
5/06/20 10:50 EGDR 050950Z 31017G27KT 9999 -DZ FEW012 SCT020 BKN130 14/08 Q1003 TEMPO 8000 -SHRA SCT010 BKN018 RMK WHT TEMPO GRN -DZ NW (310°) 19.6mph 31.1mph 14°C 8°C
5/06/20 10:22 EGDR 050922Z 31015G25KT 9999 FEW012 SCT018 BKN130 14/08 Q1003 NOSIG RMK WHT WHT NW (310°) 17.3mph 28.8mph 14°C 8°C
5/06/20 09:50 EGDR 050850Z 31015G26KT 9999 FEW012 SCT018 BKN130 14/09 Q1003 NOSIG RMK WHT WHT NW (310°) 17.3mph 29.9mph 14°C 9°C
5/06/20 09:30 EGDR 050830Z 32016G31KT 9999 FEW012 SCT018 14/09 Q1003 NOSIG RMK WHT WHT NW (320°) 18.4mph 35.7mph 14°C 9°C
5/06/20 08:50 EGDR 050750Z 31014G24KT 9999 FEW012 SCT018 BKN130 13/09 Q1003 NOSIG RMK WHT WHT NW (310°) 16.1mph 27.6mph 13°C 9°C
5/06/20 08:22 EGDR 050722Z 31016G28KT 9999 FEW012 SCT018 BKN130 13/09 Q1003 NOSIG RMK WHT WHT NW (310°) 18.4mph 32.2mph 13°C 9°C
5/06/20 07:50 EGDR 050650Z 31014G24KT 9999 FEW012 SCT018 BKN130 13/09 Q1003 NOSIG RMK WHT WHT NW (310°) 16.1mph 27.6mph 13°C 9°C
5/06/20 07:25 EGDR 050625Z 31011KT 9999 FEW013 SCT018 BKN130 13/10 Q1003 NOSIG RMK WHT WHT NW (310°) 12.7mph 13°C 10°C
5/06/20 06:50 EGDR 050550Z 32012G22KT 9999 FEW012 SCT018 13/10 Q1002 NOSIG RMK WHT WHT NW (320°) 13.8mph 25.3mph 13°C 10°C
5/06/20 06:25 EGDR 050525Z 31013KT 9999 FEW012 SCT018 12/10 Q1002 NOSIG RMK WHT WHT NW (310°) 15.0mph 12°C 10°C
5/06/20 05:50 EGDR 050450Z AUTO 31018KT 9999 // FEW012/// BKN038/// 12/10 Q1002 NW (310°) 20.7mph 12°C 10°C
5/06/20 04:50 EGDR 050350Z AUTO 31014KT 9999 // BKN011/// BKN028/// 12/10 Q1003 NW (310°) 16.1mph 12°C 10°C
5/06/20 03:50 EGDR 050250Z AUTO 31016KT 9999 // BKN012/// BKN017/// 13/10 Q1002 NW (310°) 18.4mph 13°C 10°C
5/06/20 02:50 EGDR 050150Z AUTO 31017KT 9999 // BKN013/// SCT023/// 13/11 Q1003 NW (310°) 19.6mph 13°C 11°C
5/06/20 01:50 EGDR 050050Z AUTO 30017KT 9999 // SCT011/// BKN043/// 13/11 Q1003 WNW (300°) 19.6mph 13°C 11°C
5/06/20 00:50 EGDR 042350Z AUTO 29014KT 9999 // BKN010/// BKN036/// 13/11 Q1003 WNW (290°) 16.1mph 13°C 11°C
4/06/20 23:50 EGDR 042250Z AUTO 29014KT 9999 // FEW009/// SCT019/// BKN029/// 13/11 Q1004 WNW (290°) 16.1mph 13°C 11°C
4/06/20 22:50 EGDR 042150Z 29011KT 9999 -DZ FEW008 SCT012 BKN020 13/11 Q1004 TEMPO 3500 -RADZ SCT006 RMK GRN TEMPO YLO1 -DZ WNW (290°) 12.7mph 13°C 11°C
4/06/20 22:19 EGDR 042119Z 29013KT 9999 -DZ FEW008 SCT012 BKN020 13/11 Q1004 TEMPO 3500 -RADZ SCT006 RMK GRN TEMPO YLO1 -DZ WNW (290°) 15.0mph 13°C 11°C
4/06/20 21:50 EGDR 042050Z 28010KT 9999 -RADZ FEW008 SCT012 BKN020 13/11 Q1005 TEMPO 3500 -RADZ SCT006 RMK GRN TEMPO YLO1 -RA -DZ W (280°) 11.5mph 13°C 11°C
4/06/20 21:17 EGDR 042017Z 29011KT 9999 RADZ FEW008 SCT012 BKN020 13/11 Q1005 TEMPO 3500 -RADZ SCT006 RMK GRN TEMPO YLO1 RA DZ WNW (290°) 12.7mph 13°C 11°C
4/06/20 20:50 EGDR 041950Z 28010KT 9999 -DZ FEW008 SCT012 BKN020 13/11 Q1005 TEMPO 3500 -RADZ SCT006 RMK GRN TEMPO YLO1 -DZ W (280°) 11.5mph 13°C 11°C
4/06/20 20:19 EGDR 041919Z 27010KT 9999 -DZ SCT012 BKN020 13/11 Q1005 TEMPO 3500 -RADZ SCT006 RMK GRN TEMPO YLO1 -DZ W (270°) 11.5mph 13°C 11°C
4/06/20 19:50 EGDR 041850Z 28010KT 9999 -DZ SCT013 BKN020 13/10 Q1005 TEMPO 3500 -RADZ SCT006 RMK GRN TEMPO YLO1 -DZ W (280°) 11.5mph 13°C 10°C
4/06/20 19:19 EGDR 041819Z 28011G21KT 9999 RADZ SCT012 BKN020 13/10 Q1006 TEMPO 3500 -RADZ SCT006 RMK GRN TEMPO YLO1 RA DZ W (280°) 12.7mph 24.2mph 13°C 10°C
4/06/20 18:50 EGDR 041750Z 29012KT 9999 -DZ SCT012 BKN020 12/10 Q1006 TEMPO 3500 -RADZ SCT006 RMK GRN TEMPO YLO1 -DZ WNW (290°) 13.8mph 12°C 10°C
4/06/20 18:17 EGDR 041717Z 29016KT 9999 RADZ FEW010 SCT012 BKN018 13/10 Q1006 TEMPO 3500 -RADZ SCT006 RMK GRN TEMPO YLO1 RA DZ WNW (290°) 18.4mph 13°C 10°C
4/06/20 17:50 EGDR 041650Z AUTO 29014KT 9999 // FEW013/// BKN022/// BKN026/// 13/10 Q1006 WNW (290°) 16.1mph 13°C 10°C
4/06/20 17:21 EGDR 041621Z 30013KT 9000 RADZ SCT012 BKN022 12/09 Q1007 TEMPO 3500 -RADZ SCT006 RMK GRN TEMPO YLO1 RA DZ WNW (300°) 15.0mph 12°C 9°C
4/06/20 16:50 EGDR 041550Z 30016KT 9999 SCT015 SCT023 BKN070 13/09 Q1007 TEMPO 5000 -RADZ BKN008 RMK WHT TEMPO GRN WNW (300°) 18.4mph 13°C 9°C
4/06/20 16:21 EGDR 041521Z 31019KT 9999 FEW015 SCT018 BKN070 14/08 Q1007 TEMPO 5000 -RADZ BKN008 RMK WHT TEMPO GRN NW (310°) 21.9mph 14°C 8°C
4/06/20 15:50 EGDR 041450Z 31016KT 9999 FEW015 SCT018 BKN070 14/09 Q1007 TEMPO 5000 -RADZ BKN008 RMK WHT TEMPO GRN NW (310°) 18.4mph 14°C 9°C
4/06/20 15:19 EGDR 041419Z 31018KT 9999 FEW015 SCT020 BKN070 13/09 Q1008 TEMPO 5000 -RADZ BKN008 RMK WHT TEMPO GRN NW (310°) 20.7mph 13°C 9°C
4/06/20 14:50 EGDR 041350Z 32018KT 9999 SCT023 BKN070 14/08 Q1008 NO SIG RMK WHT WHT NW (320°) 20.7mph 14°C 8°C
4/06/20 14:24 EGDR 041324Z 32018KT 9999 SCT028 BKN070 14/07 Q1008 TEMPO SCT020 RMK BLU TEMPO WHT NW (320°) 20.7mph 14°C 7°C
4/06/20 13:50 EGDR 041250Z 34016KT 9999 SCT030 BKN070 14/05 Q1008 BLU TEMPO SCT020 RMK BLU TEMPO WHT NNW (340°) 18.4mph 14°C 5°C
4/06/20 13:27 EGDR 041227Z 34015KT 9999 FEW028 BKN080 13/05 Q1008 BLU TEMPO SCT020 RMK WHT NNW (340°) 17.3mph 13°C 5°C
4/06/20 12:50 EGDR 041150Z 34014KT 9999 SCT022 SCT030 14/07 Q1008 WHT TEMPO SCT020 RMK WHT NNW (340°) 16.1mph 14°C 7°C
4/06/20 12:19 EGDR 041119Z 33016KT 9999 SCT022 SCT026 BKN033 14/07 Q1008 TEMPO SCT020 RMK WHT NNW (330°) 18.4mph 14°C 7°C
4/06/20 11:50 EGDR 041050Z 34015KT 9999 SCT023 SCT034 BKN250 13/06 Q1008 TEMPO SCT020 RMK WHT NNW (340°) 17.3mph 13°C 6°C
4/06/20 11:17 EGDR 041017Z 35016KT 9999 FEW019 SCT022 BKN030 13/07 Q1008 TEMPO SCT020 RMK WHT N (350°) 18.4mph 13°C 7°C
4/06/20 10:50 EGDR 040950Z 35013KT 9999 FEW019 SCT023 BKN250 13/08 Q1008 TEMPO SCT020 RMK WHT N (350°) 15.0mph 13°C 8°C
4/06/20 10:20 EGDR 040920Z 34016KT 9999 FEW019 SCT022 BKN100 13/07 Q1008 TEMPO SCT020 RMK WHT NNW (340°) 18.4mph 13°C 7°C
4/06/20 09:50 EGDR 040850Z 35016KT 9999 FEW014 SCT020 BKN100 13/07 Q1008 TEMPO SCT020 RMK WHT N (350°) 18.4mph 13°C 7°C
4/06/20 09:22 EGDR 040822Z 35016KT 9999 FEW014 SCT020 13/08 Q1009 TEMPO SCT020 RMK WHT N (350°) 18.4mph 13°C 8°C
4/06/20 08:50 EGDR 040750Z 36016KT 9999 FEW014 SCT040 12/07 Q1008 TEMPO SCT020 RMK BLU TEMPO WHT N (360°) 18.4mph 12°C 7°C
4/06/20 08:18 EGDR 040718Z 36015KT 9999 FEW014 SCT040 12/08 Q1008 TEMPO SCT020 RMK BLU TEMPO WHT N (360°) 17.3mph 12°C 8°C
4/06/20 07:50 EGDR 040650Z 01017KT 9999 FEW014 SCT040 12/07 Q1008 BLU TEMPO SCT020 RMK BLU TEMPO WHT N (10°) 19.6mph 12°C 7°C
4/06/20 07:20 EGDR 040620Z 01012KT 9999 FEW014 12/08 Q1008 BLU TEMPO SCT020 RMK BLU TEMPO WHT N (10°) 13.8mph 12°C 8°C
4/06/20 06:50 EGDR 040550Z 02012KT 9999 FEW014 SCT040 12/08 Q1008 BLU TEMPO SCT020 RMK BLU TEMPO WHT NNE (20°) 13.8mph 12°C 8°C
4/06/20 06:23 EGDR 040523Z 02008KT 9999 FEW012 SCT024 11/08 Q1008 WHT TEMPIO 8000 -SHRA SCT010 BKN018 RMK WHT TEMPO GRN -SHRA NNE (20°) 9.2mph 11°C 8°C
4/06/20 05:50 EGDR 040450Z AUTO 02010KT 9999 // SCT038/// 11/08 Q1008 NNE (20°) 11.5mph 11°C 8°C
4/06/20 04:50 EGDR 040350Z AUTO 02014KT 9999 // FEW040/// 11/08 Q1008 NNE (20°) 16.1mph 11°C 8°C
4/06/20 03:50 EGDR 040250Z AUTO 02012KT 9999 // FEW017/// BKN040/// 11/09 Q1008 NNE (20°) 13.8mph 11°C 9°C
4/06/20 02:50 EGDR 040150Z AUTO 02016KT 9999 // SCT021/// BKN048/// 12/09 Q1008 NNE (20°) 18.4mph 12°C 9°C
4/06/20 01:50 EGDR 040050Z AUTO 02016KT 9999 // SCT014/// BKN060/// 12/09 Q1009 NNE (20°) 18.4mph 12°C 9°C
4/06/20 00:50 EGDR 032350Z AUTO 03016KT 9999 // SCT013/// BKN050/// 13/10 Q1009 NNE (30°) 18.4mph 13°C 10°C
3/06/20 23:50 EGDR 032250Z 03014G24KT 9999 SCT012 BKN030 13/10 Q1009 GRN NOSIG RMK GRN GRN NNE (30°) 16.1mph 27.6mph 13°C 10°C
3/06/20 23:15 EGDR 032215Z 02019G29KT 9999 SCT012 BKN030 13/11 Q1009 GRN NOSIG RMK GRN GRN NNE (20°) 21.9mph 33.4mph 13°C 11°C
3/06/20 22:50 EGDR 032150Z 02017G27KT 9999 FEW006 SCT012 BKN030 13/11 Q1009 GRN NOSIG RMK GRN GRN NNE (20°) 19.6mph 31.1mph 13°C 11°C
3/06/20 22:25 EGDR 032125Z 02015G25KT 9999 FEW006 SCT012 BKN030 14/11 Q1009 GRN NOSIG RMK GRN GRN NNE (20°) 17.3mph 28.8mph 14°C 11°C
3/06/20 21:50 EGDR 032050Z 02015G26KT 9999 FEW006 SCT012 BKN030 14/11 Q1008 GRN TEMPO 5000 -DZ BKN006 RMK GRN TEMPO YLO1 NNE (20°) 17.3mph 29.9mph 14°C 11°C
3/06/20 21:29 EGDR 032029Z 02018G32KT 9999 FEW006 SCT010 BKN024 14/11 Q1008 GRN TEMPO 5000 -DZ BKN006 RMK GRN TEMPO YLO1 NNE (20°) 20.7mph 36.8mph 14°C 11°C
3/06/20 20:50 EGDR 031950Z 02016G26KT 9999 FEW006 BKN010 BKN060 14/11 Q1008 GRN TEMPO 5000 -DZ BKN006 RMK GRN TEMPO YLO1 NNE (20°) 18.4mph 29.9mph 14°C 11°C
3/06/20 20:23 EGDR 031923Z 02016G26KT 9999 FEW006 SCT010 BKN050 14/11 Q1007 GRN TEMPO 5000 -DZ BKN006 RMK GRN TEMPO YLO1 NNE (20°) 18.4mph 29.9mph 14°C 11°C
3/06/20 19:50 EGDR 031850Z 03014KT 9999 FEW006 SCT008 BKN016 15/12 Q1007 RERA GRN TEMPO 5000 -DZ BKN006 RMK GRN TEMPO YLO1 NNE (30°) 16.1mph 15°C 12°C
3/06/20 19:17 EGDR 031817Z 01014KT 9999 FEW006 BKN008 BKN016 14/12 Q1007 RERA GRN TEMPO 5000 -DZ BKN006 RMK GRN TEMPO YLO1 N (10°) 16.1mph 14°C 12°C
3/06/20 18:50 EGDR 031750Z 01015G27KT 9999 -RA FEW006 BKN008 BKN016 14/12 Q1007 GRN TEMPO 5000 -DZ BKN006 RMK GRN TEMPO YLO1 -RA N (10°) 17.3mph 31.1mph 14°C 12°C